UKKK/IEV METAR and TAF weather

Enter ICAO airport designator
Station Type Date Time Source
UKKK METAR 2020/11/28 20:00 UTC NOAA

UKKK 282000Z 25002MPS 4500 BR SCT021 M01/M01 Q1017 R26/190060 NOSIG


Station Type Date Time Source
UKKK Decoded METAR 2020/11/28 20:00 UTC NOAA

Kyiv, Ukraine (UKKK) 50-24N 030-34E 167M
Nov 28, 2020 - 03:00 PM EST / 2020.11.28 2000 UTC
Wind: from the WSW (250 degrees) at 4 MPH (4 KT):0
Visibility: 2 mile(s):0
Sky conditions: partly cloudy
Weather: mist
Temperature: 30 F (-1 C)
Dew Point: 30 F (-1 C)
Relative Humidity: 100%
Pressure (altimeter): 30.03 in. Hg (1017 hPa)
ob: UKKK 282000Z 25002MPS 4500 BR SCT021 M01/M01 Q1017 R26/190060 NOSIG
cycle: 20

Station Type Date Time Source
UKKK TAF 2020/11/28 18:18 UTC NOAA

TAF TAF UKKK 281706Z 2818/2918 24003MPS 5000 BR OVC007 TX03/2912Z TNM00/2905Z
TEMPO 2818/2907 1000 -SHSN BR BKN003 SCT012CB PROB40
TEMPO 2819/2907 0400 -FZDZ FZFG OVC001
BECMG 2907/2909 20003MPS

Example: see airport list